sensor_id;sensor_type;location;lat;lon;timestamp;pressure;altitude;pressure_sealevel;temperature;humidity
57801;BME280;43627;42.728;23.256;2023-03-01T00:01:17;95461.53;;;4.97;100.00
57801;BME280;43627;42.728;23.256;2023-03-01T00:03:45;95428.59;;;4.82;100.00
57801;BME280;43627;42.728;23.256;2023-03-01T00:06:12;95444.00;;;4.85;100.00
57801;BME280;43627;42.728;23.256;2023-03-01T00:08:39;95456.25;;;4.90;100.00
57801;BME280;43627;42.728;23.256;2023-03-01T00:11:18;95418.75;;;4.72;100.00
57801;BME280;43627;42.728;23.256;2023-03-01T00:13:47;95427.97;;;4.75;100.00
57801;BME280;43627;42.728;23.256;2023-03-01T00:16:22;95416.78;;;4.73;100.00
57801;BME280;43627;42.728;23.256;2023-03-01T00:18:50;95424.44;;;4.78;100.00
57801;BME280;43627;42.728;23.256;2023-03-01T00:21:17;95413.72;;;4.74;100.00
57801;BME280;43627;42.728;23.256;2023-03-01T00:23:44;95427.16;;;4.78;100.00
57801;BME280;43627;42.728;23.256;2023-03-01T00:26:12;95409.53;;;4.70;100.00
57801;BME280;43627;42.728;23.256;2023-03-01T00:28:40;95430.91;;;4.84;100.00
57801;BME280;43627;42.728;23.256;2023-03-01T00:31:13;95428.59;;;4.82;100.00
57801;BME280;43627;42.728;23.256;2023-03-01T00:33:40;95386.59;;;4.58;100.00
57801;BME280;43627;42.728;23.256;2023-03-01T00:36:08;95416.25;;;4.81;100.00
57801;BME280;43627;42.728;23.256;2023-03-01T00:38:39;95410.63;;;4.72;100.00
57801;BME280;43627;42.728;23.256;2023-03-01T00:41:08;95404.97;;;4.67;100.00
57801;BME280;43627;42.728;23.256;2023-03-01T00:43:34;95398.50;;;4.61;100.00
57801;BME280;43627;42.728;23.256;2023-03-01T00:46:06;95397.28;;;4.65;100.00
57801;BME280;43627;42.728;23.256;2023-03-01T00:48:33;95411.47;;;4.69;100.00
57801;BME280;43627;42.728;23.256;2023-03-01T00:51:05;95417.22;;;4.71;100.00
57801;BME280;43627;42.728;23.256;2023-03-01T00:53:32;95420.34;;;4.70;100.00
57801;BME280;43627;42.728;23.256;2023-03-01T00:55:59;95394.34;;;4.56;100.00
57801;BME280;43627;42.728;23.256;2023-03-01T00:58:26;95327.72;;;4.03;100.00
57801;BME280;43627;42.728;23.256;2023-03-01T01:00:53;95410.88;;;4.58;100.00
57801;BME280;43627;42.728;23.256;2023-03-01T01:03:19;95417.47;;;4.57;100.00
57801;BME280;43627;42.728;23.256;2023-03-01T01:05:46;95390.16;;;4.51;100.00
57801;BME280;43627;42.728;23.256;2023-03-01T01:08:13;95344.78;;;3.96;100.00
57801;BME280;43627;42.728;23.256;2023-03-01T01:10:39;95362.03;;;4.02;100.00
57801;BME280;43627;42.728;23.256;2023-03-01T01:13:06;95368.44;;;4.12;100.00
57801;BME280;43627;42.728;23.256;2023-03-01T01:15:33;95371.97;;;4.09;100.00
57801;BME280;43627;42.728;23.256;2023-03-01T01:18:01;95418.69;;;4.52;100.00
57801;BME280;43627;42.728;23.256;2023-03-01T01:20:28;95343.69;;;3.93;100.00
57801;BME280;43627;42.728;23.256;2023-03-01T01:22:55;95409.47;;;4.50;100.00
57801;BME280;43627;42.728;23.256;2023-03-01T01:25:22;95379.31;;;4.32;100.00
57801;BME280;43627;42.728;23.256;2023-03-01T01:27:51;95352.25;;;4.12;100.00
57801;BME280;43627;42.728;23.256;2023-03-01T01:30:18;95332.78;;;4.00;100.00
57801;BME280;43627;42.728;23.256;2023-03-01T01:32:44;95410.66;;;4.49;100.00
57801;BME280;43627;42.728;23.256;2023-03-01T01:35:11;95406.72;;;4.53;100.00
57801;BME280;43627;42.728;23.256;2023-03-01T01:37:38;95358.16;;;4.03;100.00
57801;BME280;43627;42.728;23.256;2023-03-01T01:40:05;95376.69;;;4.28;100.00
57801;BME280;43627;42.728;23.256;2023-03-01T01:42:31;95420.59;;;4.55;100.00
57801;BME280;43627;42.728;23.256;2023-03-01T01:45:28;95436.72;;;4.59;100.00
57801;BME280;43627;42.728;23.256;2023-03-01T01:47:59;95395.84;;;4.34;100.00
57801;BME280;43627;42.728;23.256;2023-03-01T01:50:27;95415.63;;;4.50;100.00
57801;BME280;43627;42.728;23.256;2023-03-01T01:53:12;95406.38;;;4.51;100.00
57801;BME280;43627;42.728;23.256;2023-03-01T01:55:45;95381.66;;;4.29;100.00
57801;BME280;43627;42.728;23.256;2023-03-01T01:58:15;95405.59;;;4.51;100.00
57801;BME280;43627;42.728;23.256;2023-03-01T02:00:44;95404.28;;;4.36;100.00
57801;BME280;43627;42.728;23.256;2023-03-01T02:03:14;95402.59;;;4.45;100.00
57801;BME280;43627;42.728;23.256;2023-03-01T02:06:04;95413.69;;;4.51;100.00
57801;BME280;43627;42.728;23.256;2023-03-01T02:08:37;95402.84;;;4.54;100.00
57801;BME280;43627;42.728;23.256;2023-03-01T02:11:05;95396.16;;;4.39;100.00
57801;BME280;43627;42.728;23.256;2023-03-01T02:13:33;95381.41;;;4.44;100.00
57801;BME280;43627;42.728;23.256;2023-03-01T02:16:05;95334.53;;;4.11;100.00
57801;BME280;43627;42.728;23.256;2023-03-01T02:18:34;95326.44;;;4.11;100.00
57801;BME280;43627;42.728;23.256;2023-03-01T02:21:26;95397.63;;;4.44;100.00
57801;BME280;43627;42.728;23.256;2023-03-01T02:23:59;95347.50;;;4.19;100.00
57801;BME280;43627;42.728;23.256;2023-03-01T02:26:46;95383.50;;;4.36;100.00
57801;BME280;43627;42.728;23.256;2023-03-01T02:29:14;95393.88;;;4.38;100.00
57801;BME280;43627;42.728;23.256;2023-03-01T02:31:41;95360.53;;;4.01;100.00
57801;BME280;43627;42.728;23.256;2023-03-01T02:34:14;95376.53;;;4.12;100.00
57801;BME280;43627;42.728;23.256;2023-03-01T02:36:47;95346.03;;;3.91;100.00
57801;BME280;43627;42.728;23.256;2023-03-01T02:39:19;95376.59;;;4.08;100.00
57801;BME280;43627;42.728;23.256;2023-03-01T02:41:50;95363.91;;;4.05;100.00
57801;BME280;43627;42.728;23.256;2023-03-01T02:44:18;95355.38;;;3.83;100.00
57801;BME280;43627;42.728;23.256;2023-03-01T02:46:52;95337.09;;;3.71;100.00
57801;BME280;43627;42.728;23.256;2023-03-01T02:49:25;95407.94;;;4.25;100.00
57801;BME280;43627;42.728;23.256;2023-03-01T02:57:46;95390.03;;;4.12;100.00
57801;BME280;43627;42.728;23.256;2023-03-01T03:00:23;95399.81;;;4.02;100.00
57801;BME280;43627;42.728;23.256;2023-03-01T03:02:52;95385.97;;;3.73;100.00
57801;BME280;43627;42.728;23.256;2023-03-01T03:05:23;95405.31;;;3.95;100.00
57801;BME280;43627;42.728;23.256;2023-03-01T03:07:50;95344.00;;;3.45;100.00
57801;BME280;43627;42.728;23.256;2023-03-01T03:10:23;95318.38;;;3.30;100.00
57801;BME280;43627;42.728;23.256;2023-03-01T03:12:53;95405.06;;;3.86;100.00
57801;BME280;43627;42.728;23.256;2023-03-01T03:15:21;95399.47;;;3.73;100.00
57801;BME280;43627;42.728;23.256;2023-03-01T03:17:48;95380.69;;;3.66;100.00
57801;BME280;43627;42.728;23.256;2023-03-01T03:20:17;95410.88;;;3.84;100.00
57801;BME280;43627;42.728;23.256;2023-03-01T03:22:47;95375.00;;;3.60;100.00
57801;BME280;43627;42.728;23.256;2023-03-01T03:25:16;95328.53;;;3.19;100.00
57801;BME280;43627;42.728;23.256;2023-03-01T03:27:45;95324.03;;;3.39;100.00
57801;BME280;43627;42.728;23.256;2023-03-01T03:30:15;95353.78;;;3.62;100.00
57801;BME280;43627;42.728;23.256;2023-03-01T03:32:43;95400.69;;;3.95;100.00
57801;BME280;43627;42.728;23.256;2023-03-01T03:35:27;95410.56;;;4.06;100.00
57801;BME280;43627;42.728;23.256;2023-03-01T03:37:58;95400.41;;;3.90;100.00
57801;BME280;43627;42.728;23.256;2023-03-01T03:40:48;95348.38;;;3.62;100.00
57801;BME280;43627;42.728;23.256;2023-03-01T03:43:20;95418.97;;;4.11;100.00
57801;BME280;43627;42.728;23.256;2023-03-01T03:45:49;95423.84;;;4.20;100.00
57801;BME280;43627;42.728;23.256;2023-03-01T03:48:17;95414.56;;;4.21;100.00
57801;BME280;43627;42.728;23.256;2023-03-01T03:50:50;95418.44;;;4.20;100.00
57801;BME280;43627;42.728;23.256;2023-03-01T03:53:19;95359.78;;;3.73;100.00
57801;BME280;43627;42.728;23.256;2023-03-01T03:58:49;95427.97;;;4.01;100.00
57801;BME280;43627;42.728;23.256;2023-03-01T04:01:16;95419.22;;;3.93;100.00
57801;BME280;43627;42.728;23.256;2023-03-01T04:04:01;95423.91;;;3.89;100.00
57801;BME280;43627;42.728;23.256;2023-03-01T04:06:30;95387.66;;;3.63;100.00
57801;BME280;43627;42.728;23.256;2023-03-01T04:08:58;95381.69;;;3.49;100.00
57801;BME280;43627;42.728;23.256;2023-03-01T04:11:28;95381.09;;;3.34;100.00
57801;BME280;43627;42.728;23.256;2023-03-01T04:13:57;95425.25;;;3.74;100.00
57801;BME280;43627;42.728;23.256;2023-03-01T04:16:25;95378.41;;;3.34;100.00
57801;BME280;43627;42.728;23.256;2023-03-01T04:18:52;95394.75;;;3.50;100.00
57801;BME280;43627;42.728;23.256;2023-03-01T04:21:20;95424.47;;;3.47;100.00
57801;BME280;43627;42.728;23.256;2023-03-01T04:23:46;95415.25;;;3.44;100.00
57801;BME280;43627;42.728;23.256;2023-03-01T04:26:13;95427.78;;;3.58;100.00
57801;BME280;43627;42.728;23.256;2023-03-01T04:28:41;95396.41;;;3.40;100.00
57801;BME280;43627;42.728;23.256;2023-03-01T04:31:17;95346.28;;;3.16;100.00
57801;BME280;43627;42.728;23.256;2023-03-01T04:33:47;95430.38;;;3.65;100.00
57801;BME280;43627;42.728;23.256;2023-03-01T04:36:15;95411.06;;;3.39;100.00
57801;BME280;43627;42.728;23.256;2023-03-01T04:38:43;95426.31;;;3.53;100.00
57801;BME280;43627;42.728;23.256;2023-03-01T04:41:16;95355.75;;;2.97;100.00
57801;BME280;43627;42.728;23.256;2023-03-01T04:43:44;95306.22;;;2.57;100.00
57801;BME280;43627;42.728;23.256;2023-03-01T04:46:12;95382.50;;;3.15;100.00
57801;BME280;43627;42.728;23.256;2023-03-01T04:48:42;95380.63;;;3.08;100.00
57801;BME280;43627;42.728;23.256;2023-03-01T04:51:10;95415.91;;;3.21;100.00
57801;BME280;43627;42.728;23.256;2023-03-01T04:53:40;95363.19;;;2.86;100.00
57801;BME280;43627;42.728;23.256;2023-03-01T04:56:08;95322.72;;;2.59;100.00
57801;BME280;43627;42.728;23.256;2023-03-01T04:58:35;95363.81;;;2.63;100.00
57801;BME280;43627;42.728;23.256;2023-03-01T05:01:11;95419.81;;;3.17;100.00
57801;BME280;43627;42.728;23.256;2023-03-01T05:03:47;95409.44;;;3.15;100.00
57801;BME280;43627;42.728;23.256;2023-03-01T05:06:15;95356.38;;;2.74;100.00
57801;BME280;43627;42.728;23.256;2023-03-01T05:08:43;95385.91;;;2.85;100.00
57801;BME280;43627;42.728;23.256;2023-03-01T05:11:11;95358.34;;;2.70;100.00
57801;BME280;43627;42.728;23.256;2023-03-01T05:13:38;95331.66;;;2.49;100.00
57801;BME280;43627;42.728;23.256;2023-03-01T05:16:06;95415.31;;;3.06;100.00
57801;BME280;43627;42.728;23.256;2023-03-01T05:18:33;95408.50;;;2.95;100.00
57801;BME280;43627;42.728;23.256;2023-03-01T05:23:32;95358.00;;;2.68;100.00
57801;BME280;43627;42.728;23.256;2023-03-01T05:26:00;95381.66;;;2.88;100.00
57801;BME280;43627;42.728;23.256;2023-03-01T05:28:27;95427.06;;;2.85;100.00
57801;BME280;43627;42.728;23.256;2023-03-01T05:30:54;95394.59;;;3.00;100.00
57801;BME280;43627;42.728;23.256;2023-03-01T05:33:21;95440.31;;;3.07;100.00
57801;BME280;43627;42.728;23.256;2023-03-01T05:35:50;95413.44;;;3.00;100.00
57801;BME280;43627;42.728;23.256;2023-03-01T05:38:18;95318.38;;;2.31;100.00
57801;BME280;43627;42.728;23.256;2023-03-01T05:40:47;95403.41;;;3.04;100.00
57801;BME280;43627;42.728;23.256;2023-03-01T05:43:16;95339.22;;;2.61;100.00
57801;BME280;43627;42.728;23.256;2023-03-01T05:45:43;95370.53;;;2.85;100.00
57801;BME280;43627;42.728;23.256;2023-03-01T05:48:13;95388.38;;;3.06;100.00
57801;BME280;43627;42.728;23.256;2023-03-01T05:50:42;95342.44;;;2.83;100.00
57801;BME280;43627;42.728;23.256;2023-03-01T05:53:18;95420.50;;;3.24;100.00
57801;BME280;43627;42.728;23.256;2023-03-01T05:55:48;95439.59;;;3.37;100.00
57801;BME280;43627;42.728;23.256;2023-03-01T05:58:19;95435.28;;;3.43;100.00
57801;BME280;43627;42.728;23.256;2023-03-01T06:00:47;95375.44;;;2.91;100.00
57801;BME280;43627;42.728;23.256;2023-03-01T06:03:23;95327.56;;;2.71;100.00
57801;BME280;43627;42.728;23.256;2023-03-01T06:05:55;95439.09;;;3.46;100.00
57801;BME280;43627;42.728;23.256;2023-03-01T06:08:23;95471.25;;;3.63;100.00
57801;BME280;43627;42.728;23.256;2023-03-01T06:10:50;95391.78;;;3.10;100.00
57801;BME280;43627;42.728;23.256;2023-03-01T06:13:18;95458.88;;;3.66;100.00
57801;BME280;43627;42.728;23.256;2023-03-01T06:15:46;95466.16;;;3.69;100.00
57801;BME280;43627;42.728;23.256;2023-03-01T06:18:13;95453.94;;;3.61;100.00
57801;BME280;43627;42.728;23.256;2023-03-01T06:20:52;95467.97;;;3.79;100.00
57801;BME280;43627;42.728;23.256;2023-03-01T06:23:24;95396.94;;;3.28;100.00
57801;BME280;43627;42.728;23.256;2023-03-01T06:25:52;95396.66;;;3.23;100.00
57801;BME280;43627;42.728;23.256;2023-03-01T06:28:20;95468.06;;;3.72;100.00
57801;BME280;43627;42.728;23.256;2023-03-01T06:30:47;95403.78;;;3.36;100.00
57801;BME280;43627;42.728;23.256;2023-03-01T06:33:14;95465.28;;;3.79;100.00
57801;BME280;43627;42.728;23.256;2023-03-01T06:35:41;95446.66;;;3.58;100.00
57801;BME280;43627;42.728;23.256;2023-03-01T06:38:08;95409.88;;;3.44;100.00
57801;BME280;43627;42.728;23.256;2023-03-01T06:40:35;95459.25;;;3.98;100.00
57801;BME280;43627;42.728;23.256;2023-03-01T06:43:03;95418.50;;;3.62;100.00
57801;BME280;43627;42.728;23.256;2023-03-01T06:45:30;95447.03;;;3.87;100.00
57801;BME280;43627;42.728;23.256;2023-03-01T06:48:05;95414.25;;;3.61;100.00
57801;BME280;43627;42.728;23.256;2023-03-01T06:50:34;95454.59;;;3.99;100.00
57801;BME280;43627;42.728;23.256;2023-03-01T06:53:03;95344.50;;;3.36;100.00
57801;BME280;43627;42.728;23.256;2023-03-01T06:55:32;95428.91;;;3.91;100.00
57801;BME280;43627;42.728;23.256;2023-03-01T06:58:01;95388.72;;;3.69;100.00
57801;BME280;43627;42.728;23.256;2023-03-01T07:00:29;95362.91;;;3.41;100.00
57801;BME280;43627;42.728;23.256;2023-03-01T07:02:59;95462.06;;;4.15;100.00
57801;BME280;43627;42.728;23.256;2023-03-01T07:05:29;95468.97;;;4.19;100.00
57801;BME280;43627;42.728;23.256;2023-03-01T07:07:56;95385.91;;;3.77;100.00
57801;BME280;43627;42.728;23.256;2023-03-01T07:10:23;95441.38;;;4.08;100.00
57801;BME280;43627;42.728;23.256;2023-03-01T07:12:54;95439.72;;;4.14;100.00
57801;BME280;43627;42.728;23.256;2023-03-01T07:15:21;95468.19;;;4.46;100.00
57801;BME280;43627;42.728;23.256;2023-03-01T07:17:47;95455.03;;;4.48;100.00
57801;BME280;43627;42.728;23.256;2023-03-01T07:20:18;95426.28;;;4.11;100.00
57801;BME280;43627;42.728;23.256;2023-03-01T07:22:45;95386.69;;;3.77;100.00
57801;BME280;43627;42.728;23.256;2023-03-01T07:25:12;95458.69;;;4.34;100.00
57801;BME280;43627;42.728;23.256;2023-03-01T07:27:38;95377.78;;;3.80;100.00
57801;BME280;43627;42.728;23.256;2023-03-01T07:30:05;95452.88;;;4.36;100.00
57801;BME280;43627;42.728;23.256;2023-03-01T07:32:32;95439.56;;;4.25;100.00
57801;BME280;43627;42.728;23.256;2023-03-01T07:34:59;95393.56;;;4.09;100.00
57801;BME280;43627;42.728;23.256;2023-03-01T07:37:26;95421.16;;;4.20;100.00
57801;BME280;43627;42.728;23.256;2023-03-01T07:39:53;95392.72;;;4.12;100.00
57801;BME280;43627;42.728;23.256;2023-03-01T07:42:20;95455.63;;;4.59;100.00
57801;BME280;43627;42.728;23.256;2023-03-01T07:44:47;95444.41;;;4.61;100.00
57801;BME280;43627;42.728;23.256;2023-03-01T07:47:13;95442.69;;;4.70;100.00
57801;BME280;43627;42.728;23.256;2023-03-01T07:49:40;95453.81;;;4.76;100.00
57801;BME280;43627;42.728;23.256;2023-03-01T07:52:10;95455.06;;;4.91;100.00
57801;BME280;43627;42.728;23.256;2023-03-01T07:54:38;95453.13;;;4.92;100.00
57801;BME280;43627;42.728;23.256;2023-03-01T07:57:05;95394.34;;;4.56;100.00
57801;BME280;43627;42.728;23.256;2023-03-01T07:59:32;95436.88;;;4.95;100.00
57801;BME280;43627;42.728;23.256;2023-03-01T08:01:59;95434.88;;;4.99;100.00
57801;BME280;43627;42.728;23.256;2023-03-01T08:04:26;95432.34;;;4.88;100.00
57801;BME280;43627;42.728;23.256;2023-03-01T08:06:54;95449.22;;;4.96;100.00
57801;BME280;43627;42.728;23.256;2023-03-01T08:09:21;95408.00;;;4.69;100.00
57801;BME280;43627;42.728;23.256;2023-03-01T08:11:48;95390.38;;;4.61;100.00
57801;BME280;43627;42.728;23.256;2023-03-01T08:14:14;95442.63;;;4.97;100.00
57801;BME280;43627;42.728;23.256;2023-03-01T08:16:41;95379.47;;;4.68;100.00
57801;BME280;43627;42.728;23.256;2023-03-01T08:19:11;95428.28;;;5.00;100.00
57801;BME280;43627;42.728;23.256;2023-03-01T08:21:38;95429.34;;;5.06;100.00
57801;BME280;43627;42.728;23.256;2023-03-01T08:24:06;95379.97;;;4.82;100.00
57801;BME280;43627;42.728;23.256;2023-03-01T08:26:33;95440.16;;;5.26;100.00
57801;BME280;43627;42.728;23.256;2023-03-01T08:29:00;95382.31;;;4.80;100.00
57801;BME280;43627;42.728;23.256;2023-03-01T08:31:30;95432.13;;;5.23;100.00
57801;BME280;43627;42.728;23.256;2023-03-01T08:33:59;95436.97;;;5.51;100.00
57801;BME280;43627;42.728;23.256;2023-03-01T08:36:32;95410.63;;;5.15;100.00
57801;BME280;43627;42.728;23.256;2023-03-01T08:39:00;95396.22;;;5.02;100.00
57801;BME280;43627;42.728;23.256;2023-03-01T08:41:27;95440.78;;;5.34;100.00
57801;BME280;43627;42.728;23.256;2023-03-01T08:43:54;95382.63;;;5.06;100.00
57801;BME280;43627;42.728;23.256;2023-03-01T08:48:52;95384.91;;;5.27;100.00
57801;BME280;43627;42.728;23.256;2023-03-01T08:51:20;95393.56;;;5.19;100.00
57801;BME280;43627;42.728;23.256;2023-03-01T08:53:48;95415.78;;;5.66;100.00
57801;BME280;43627;42.728;23.256;2023-03-01T08:56:15;95377.31;;;5.58;100.00
57801;BME280;43627;42.728;23.256;2023-03-01T08:58:47;95347.91;;;5.24;100.00
57801;BME280;43627;42.728;23.256;2023-03-01T09:01:17;95355.31;;;5.20;100.00
57801;BME280;43627;42.728;23.256;2023-03-01T09:03:44;95408.09;;;5.64;100.00
57801;BME280;43627;42.728;23.256;2023-03-01T09:06:11;95393.00;;;5.47;100.00
57801;BME280;43627;42.728;23.256;2023-03-01T09:08:41;95413.03;;;5.69;100.00
57801;BME280;43627;42.728;23.256;2023-03-01T09:11:10;95438.91;;;5.90;100.00
57801;BME280;43627;42.728;23.256;2023-03-01T09:13:37;95431.59;;;6.07;100.00
57801;BME280;43627;42.728;23.256;2023-03-01T09:16:06;95379.28;;;5.94;100.00
57801;BME280;43627;42.728;23.256;2023-03-01T09:18:34;95410.78;;;6.20;100.00
57801;BME280;43627;42.728;23.256;2023-03-01T09:21:13;95401.97;;;6.49;100.00
57801;BME280;43627;42.728;23.256;2023-03-01T09:23:43;95392.84;;;6.26;100.00
57801;BME280;43627;42.728;23.256;2023-03-01T09:26:12;95374.56;;;5.98;100.00
57801;BME280;43627;42.728;23.256;2023-03-01T09:28:39;95412.56;;;6.27;100.00
57801;BME280;43627;42.728;23.256;2023-03-01T09:31:07;95423.66;;;6.49;100.00
57801;BME280;43627;42.728;23.256;2023-03-01T09:33:34;95369.06;;;6.18;100.00
57801;BME280;43627;42.728;23.256;2023-03-01T09:36:05;95378.88;;;6.12;100.00
57801;BME280;43627;42.728;23.256;2023-03-01T09:38:33;95346.16;;;5.86;100.00
57801;BME280;43627;42.728;23.256;2023-03-01T09:41:00;95398.66;;;6.09;100.00
57801;BME280;43627;42.728;23.256;2023-03-01T09:43:46;95400.38;;;6.19;100.00
57801;BME280;43627;42.728;23.256;2023-03-01T09:46:23;95392.09;;;5.90;100.00
57801;BME280;43627;42.728;23.256;2023-03-01T09:48:50;95402.16;;;6.25;100.00
57801;BME280;43627;42.728;23.256;2023-03-01T09:51:26;95351.19;;;5.88;100.00
57801;BME280;43627;42.728;23.256;2023-03-01T09:53:53;95398.06;;;6.34;100.00
57801;BME280;43627;42.728;23.256;2023-03-01T09:56:29;95386.84;;;6.35;100.00
57801;BME280;43627;42.728;23.256;2023-03-01T10:04:40;95348.81;;;6.22;100.00
57801;BME280;43627;42.728;23.256;2023-03-01T10:09:43;95397.03;;;6.76;100.00
57801;BME280;43627;42.728;23.256;2023-03-01T10:12:18;95347.53;;;6.59;100.00
57801;BME280;43627;42.728;23.256;2023-03-01T10:17:37;95396.97;;;6.64;100.00
57801;BME280;43627;42.728;23.256;2023-03-01T10:20:15;95380.03;;;6.59;100.00
57801;BME280;43627;42.728;23.256;2023-03-01T10:22:43;95285.91;;;6.18;100.00
57801;BME280;43627;42.728;23.256;2023-03-01T10:28:20;95315.84;;;6.27;100.00
57801;BME280;43627;42.728;23.256;2023-03-01T10:30:50;95359.13;;;6.60;100.00
57801;BME280;43627;42.728;23.256;2023-03-01T10:33:26;95335.38;;;6.35;100.00
57801;BME280;43627;42.728;23.256;2023-03-01T10:35:54;95359.97;;;6.57;100.00
57801;BME280;43627;42.728;23.256;2023-03-01T10:38:21;95387.88;;;6.86;100.00
57801;BME280;43627;42.728;23.256;2023-03-01T10:40:59;95355.16;;;6.65;100.00
57801;BME280;43627;42.728;23.256;2023-03-01T10:43:48;95350.84;;;6.51;100.00
57801;BME280;43627;42.728;23.256;2023-03-01T10:46:30;95305.88;;;6.08;100.00
57801;BME280;43627;42.728;23.256;2023-03-01T10:49:19;95314.25;;;5.97;100.00
57801;BME280;43627;42.728;23.256;2023-03-01T10:51:49;95310.75;;;6.13;100.00
57801;BME280;43627;42.728;23.256;2023-03-01T10:54:23;95373.69;;;6.66;100.00
57801;BME280;43627;42.728;23.256;2023-03-01T10:56:54;95367.41;;;6.69;100.00
57801;BME280;43627;42.728;23.256;2023-03-01T10:59:33;95299.91;;;6.29;100.00
57801;BME280;43627;42.728;23.256;2023-03-01T11:05:00;95371.13;;;7.04;100.00
57801;BME280;43627;42.728;23.256;2023-03-01T11:07:27;95350.56;;;6.91;100.00
57801;BME280;43627;42.728;23.256;2023-03-01T11:09:54;95384.09;;;7.26;100.00
57801;BME280;43627;42.728;23.256;2023-03-01T11:12:21;95309.91;;;6.91;100.00
57801;BME280;43627;42.728;23.256;2023-03-01T11:14:50;95363.94;;;7.27;100.00
57801;BME280;43627;42.728;23.256;2023-03-01T11:17:29;95363.94;;;7.27;100.00
57801;BME280;43627;42.728;23.256;2023-03-01T11:20:17;95369.13;;;7.21;100.00
57801;BME280;43627;42.728;23.256;2023-03-01T11:22:56;95368.13;;;7.15;100.00
57801;BME280;43627;42.728;23.256;2023-03-01T11:25:28;95345.22;;;7.03;100.00
57801;BME280;43627;42.728;23.256;2023-03-01T11:27:57;95326.44;;;6.96;100.00
57801;BME280;43627;42.728;23.256;2023-03-01T11:30:30;95284.56;;;6.55;100.00
57801;BME280;43627;42.728;23.256;2023-03-01T11:35:32;95347.94;;;6.74;100.00
57801;BME280;43627;42.728;23.256;2023-03-01T11:40:32;95322.91;;;6.54;100.00
57801;BME280;43627;42.728;23.256;2023-03-01T11:57:00;95251.94;;;6.30;100.00
57801;BME280;43627;42.728;23.256;2023-03-01T12:07:46;95320.53;;;6.85;100.00
57801;BME280;43627;42.728;23.256;2023-03-01T12:18:41;95300.69;;;6.88;100.00
57801;BME280;43627;42.728;23.256;2023-03-01T12:21:30;95255.91;;;6.83;100.00
57801;BME280;43627;42.728;23.256;2023-03-01T12:26:51;95300.72;;;7.42;100.00
57801;BME280;43627;42.728;23.256;2023-03-01T12:37:32;95297.47;;;7.60;100.00
57801;BME280;43627;42.728;23.256;2023-03-01T12:43:07;95292.34;;;7.62;100.00
57801;BME280;43627;42.728;23.256;2023-03-01T12:46:06;95293.88;;;7.51;100.00
57801;BME280;43627;42.728;23.256;2023-03-01T12:49:33;95284.97;;;7.63;100.00
57801;BME280;43627;42.728;23.256;2023-03-01T12:52:56;95217.47;;;7.14;100.00
57801;BME280;43627;42.728;23.256;2023-03-01T12:55:01;95259.66;;;7.66;100.00
57801;BME280;43627;42.728;23.256;2023-03-01T12:57:43;95284.97;;;7.88;100.00
57801;BME280;43627;42.728;23.256;2023-03-01T13:03:24;95290.72;;;7.65;100.00
57801;BME280;43627;42.728;23.256;2023-03-01T13:06:17;95288.31;;;7.92;100.00
57801;BME280;43627;42.728;23.256;2023-03-01T13:11:42;95293.06;;;8.26;100.00
57801;BME280;43627;42.728;23.256;2023-03-01T13:16:51;95206.81;;;7.70;100.00
57801;BME280;43627;42.728;23.256;2023-03-01T13:19:25;95313.63;;;7.89;100.00
57801;BME280;43627;42.728;23.256;2023-03-01T13:21:53;95283.47;;;7.62;100.00
57801;BME280;43627;42.728;23.256;2023-03-01T13:24:37;95277.47;;;7.54;100.00
57801;BME280;43627;42.728;23.256;2023-03-01T13:29:55;95292.88;;;7.32;100.00
57801;BME280;43627;42.728;23.256;2023-03-01T13:37:41;95245.88;;;7.09;100.00
57801;BME280;43627;42.728;23.256;2023-03-01T13:42:51;95282.16;;;7.54;100.00
57801;BME280;43627;42.728;23.256;2023-03-01T13:45:40;95296.47;;;7.67;100.00
57801;BME280;43627;42.728;23.256;2023-03-01T13:48:15;95283.47;;;7.62;100.00
57801;BME280;43627;42.728;23.256;2023-03-01T13:50:55;95291.59;;;7.49;100.00
57801;BME280;43627;42.728;23.256;2023-03-01T13:53:26;95241.44;;;7.15;100.00
57801;BME280;43627;42.728;23.256;2023-03-01T13:56:00;95213.50;;;6.77;100.00
57801;BME280;43627;42.728;23.256;2023-03-01T13:58:33;95255.63;;;6.94;100.00
57801;BME280;43627;42.728;23.256;2023-03-01T14:01:04;95287.72;;;6.96;100.00
57801;BME280;43627;42.728;23.256;2023-03-01T14:03:33;95284.25;;;6.95;100.00
57801;BME280;43627;42.728;23.256;2023-03-01T14:08:39;95227.50;;;6.88;100.00
57801;BME280;43627;42.728;23.256;2023-03-01T14:16:57;95269.75;;;7.02;100.00
57801;BME280;43627;42.728;23.256;2023-03-01T14:19:26;95276.13;;;7.08;100.00
57801;BME280;43627;42.728;23.256;2023-03-01T14:22:25;95272.97;;;7.09;100.00
57801;BME280;43627;42.728;23.256;2023-03-01T14:25:00;95278.53;;;7.19;100.00
57801;BME280;43627;42.728;23.256;2023-03-01T14:27:37;95270.25;;;6.97;100.00
57801;BME280;43627;42.728;23.256;2023-03-01T14:30:15;95275.09;;;6.89;100.00
57801;BME280;43627;42.728;23.256;2023-03-01T14:32:56;95252.66;;;6.76;100.00
57801;BME280;43627;42.728;23.256;2023-03-01T14:35:28;95248.94;;;6.70;100.00
57801;BME280;43627;42.728;23.256;2023-03-01T14:37:55;95254.94;;;6.90;100.00
57801;BME280;43627;42.728;23.256;2023-03-01T14:40:24;95262.03;;;6.71;100.00
57801;BME280;43627;42.728;23.256;2023-03-01T14:42:51;95219.28;;;6.21;100.00
57801;BME280;43627;42.728;23.256;2023-03-01T14:45:19;95275.22;;;6.56;100.00
57801;BME280;43627;42.728;23.256;2023-03-01T14:47:46;95214.66;;;6.05;100.00
57801;BME280;43627;42.728;23.256;2023-03-01T14:50:24;95246.13;;;6.44;100.00
57801;BME280;43627;42.728;23.256;2023-03-01T14:52:55;95256.16;;;6.31;100.00
57801;BME280;43627;42.728;23.256;2023-03-01T14:55:44;95267.31;;;6.33;100.00
57801;BME280;43627;42.728;23.256;2023-03-01T14:58:14;95264.47;;;6.24;100.00